Central Virginia Flyers


Central Virginia Flyers is a 10 member flying club based in Richmond, VA at Hanover County Airport (KOFP). We own N787AT, a 1977 Cessna 172 with 180hp conversion. If you are interested in membership, please contact Brenton at brenton@cvflyers.org.


Aviation Digital Data Service (ADDS)

Output produced by METARs form (1149 UTC 01 August 2014)
found at http://aviationweather.gov/adds/metars/
 
KOFP 011054Z AUTO 00000KT 3SM -RA BR OVC100 21/19 A3019 RMK AO2 RAB33 SLP222 P0000 T02060194
KRIC 011133Z 00000KT 5SM BR SCT027 SCT085 OVC110 22/20 A3018 RMK AO2 RAE21 P0000
KRIC 011120Z 0112/0212 15005KT P6SM -RA SCT030 BKN060 OVC120 
     TEMPO 0112/0116 4SM -RA BR BKN030 
     FM011600 10006KT P6SM VCSH BKN040 OVC080 
     FM012200 07005KT P6SM OVC030 
     FM020600 04004KT 5SM BR OVC015